Time;durP1;ratioP1;P1;durP2;ratioP2;P2;SDS_P1;SDS_P2;PMS_P1;PMS_P2;Temp;Humidity;BMP_temperature;BMP_pressure;BME280_temperature;BME280_humidity;BME280_pressure;Samples;Min_cycle;Max_cycle;Signal;HPM_P1;HPM_P2
2022/01/23 00:01:48;;;;;;;;;;;22.50;48.20;;;;;;5077279;28;19998;-71
2022/01/23 00:04:14;;;;;;;;;;;22.50;48.20;;;;;;5084050;28;20378;-72
2022/01/23 00:06:39;;;;;;;;;;;22.50;48.30;;;;;;5087168;28;19931;-70
2022/01/23 00:09:05;;;;;;;;;;;22.40;48.30;;;;;;5084563;28;19923;-72
2022/01/23 00:11:32;;;;;;;;;;;22.40;48.30;;;;;;5103114;28;20038;-72
2022/01/23 00:19:09;;;;;;;;;;;22.40;48.40;;;;;;5087666;28;19955;-72
2022/01/23 00:21:36;;;;;;;;;;;22.40;48.40;;;;;;5088291;28;19916;-72
2022/01/23 00:31:56;;;;;;;;;;;22.30;48.40;;;;;;5081120;28;19953;-70
2022/01/23 00:34:22;;;;;;;;;;;22.20;48.40;;;;;;5086694;28;20284;-72
2022/01/23 00:36:47;;;;;;;;;;;22.30;48.50;;;;;;5086691;28;19923;-72
2022/01/23 00:39:13;;;;;;;;;;;22.20;48.40;;;;;;5084157;28;20390;-72
2022/01/23 00:41:38;;;;;;;;;;;22.20;48.40;;;;;;5083548;28;19948;-71
2022/01/23 00:44:04;;;;;;;;;;;22.20;48.40;;;;;;5085980;28;19916;-70
2022/01/23 00:46:35;;;;;;;;;;;22.20;48.30;;;;;;5082384;28;19917;-72
2022/01/23 00:51:35;;;;;;;;;;;22.10;48.30;;;;;;5086679;28;19935;-72
2022/01/23 00:54:03;;;;;;;;;;;22.10;48.30;;;;;;5086442;28;19920;-70
2022/01/23 00:56:28;;;;;;;;;;;22.10;48.30;;;;;;5084428;28;19995;-71
2022/01/23 00:58:54;;;;;;;;;;;22.10;48.30;;;;;;5085302;28;20331;-70
2022/01/23 01:01:19;;;;;;;;;;;22.10;48.40;;;;;;5079415;28;20053;-71
2022/01/23 01:03:45;;;;;;;;;;;22.00;48.20;;;;;;5083853;28;19920;-71
2022/01/23 01:06:11;;;;;;;;;;;22.00;48.30;;;;;;5086340;28;20424;-70
2022/01/23 01:08:36;;;;;;;;;;;22.00;48.30;;;;;;5084898;28;19993;-72
2022/01/23 01:14:19;;;;;;;;;;;22.00;48.30;;;;;;5085830;28;19916;-72
2022/01/23 01:38:45;;;;;;;;;;;21.80;48.30;;;;;;5081797;28;19916;-71
2022/01/23 01:41:10;;;;;;;;;;;21.80;48.30;;;;;;5083095;28;19921;-71
2022/01/23 01:43:36;;;;;;;;;;;21.70;48.30;;;;;;5083353;28;19973;-70
2022/01/23 01:46:03;;;;;;;;;;;21.70;48.30;;;;;;5082133;28;20384;-71
2022/01/23 01:48:29;;;;;;;;;;;21.70;48.30;;;;;;5084468;28;19925;-72
2022/01/23 01:50:55;;;;;;;;;;;21.70;48.30;;;;;;5085347;28;20303;-72
2022/01/23 01:53:22;;;;;;;;;;;21.70;48.30;;;;;;5084934;28;19973;-70
2022/01/23 01:55:51;;;;;;;;;;;21.70;48.30;;;;;;5084528;28;19913;-71
2022/01/23 02:01:10;;;;;;;;;;;21.60;48.30;;;;;;5080937;28;19919;-72
2022/01/23 02:08:46;;;;;;;;;;;21.60;48.30;;;;;;5086055;28;20562;-70
2022/01/23 02:13:49;;;;;;;;;;;21.60;48.30;;;;;;5080150;28;19916;-70
2022/01/23 02:52:02;;;;;;;;;;;21.40;48.40;;;;;;5081370;28;19927;-72
2022/01/23 02:56:46;;;;;;;;;;;21.40;48.50;;;;;;5088354;28;19927;-71
2022/01/23 02:59:20;;;;;;;;;;;21.30;48.40;;;;;;5087737;28;19916;-72
2022/01/23 03:02:34;;;;;;;;;;;21.30;48.40;;;;;;5090465;28;19978;-70
2022/01/23 03:04:37;;;;;;;;;;;21.30;48.40;;;;;;5083414;28;19916;-71
2022/01/23 03:13:19;;;;;;;;;;;21.30;48.50;;;;;;5085784;28;19916;-72
2022/01/23 03:15:13;;;;;;;;;;;21.30;48.50;;;;;;5085470;28;19912;-72
2022/01/23 03:26:24;;;;;;;;;;;21.20;48.50;;;;;;5054043;28;20233;-72
2022/01/23 03:34:19;;;;;;;;;;;21.20;48.50;;;;;;5088632;28;20632;-72
2022/01/23 03:36:44;;;;;;;;;;;21.20;48.50;;;;;;5086976;28;20019;-71
2022/01/23 03:39:10;;;;;;;;;;;21.20;48.60;;;;;;5087126;28;19927;-71
2022/01/23 03:41:37;;;;;;;;;;;21.20;48.60;;;;;;5087189;28;19920;-70
2022/01/23 03:44:04;;;;;;;;;;;21.20;48.60;;;;;;5089091;28;20423;-72
2022/01/23 03:46:46;;;;;;;;;;;21.20;48.60;;;;;;5085407;28;19920;-72
2022/01/23 03:49:31;;;;;;;;;;;21.20;48.60;;;;;;5084378;28;19916;-71
2022/01/23 03:52:00;;;;;;;;;;;21.10;48.60;;;;;;5085555;28;19924;-72
2022/01/23 03:54:27;;;;;;;;;;;21.10;48.60;;;;;;5085406;28;19916;-71
2022/01/23 03:56:54;;;;;;;;;;;21.10;48.60;;;;;;5086547;28;19912;-72
2022/01/23 03:59:19;;;;;;;;;;;21.10;48.60;;;;;;5087915;28;19912;-72
2022/01/23 04:01:45;;;;;;;;;;;21.00;48.50;;;;;;5084042;28;19942;-72
2022/01/23 04:04:26;;;;;;;;;;;21.10;48.60;;;;;;5087105;28;19919;-72
2022/01/23 04:06:55;;;;;;;;;;;21.10;48.60;;;;;;5087584;28;19916;-72
2022/01/23 04:09:20;;;;;;;;;;;21.10;48.60;;;;;;5083556;28;20000;-72
2022/01/23 04:11:46;;;;;;;;;;;21.10;48.70;;;;;;5085441;28;20351;-72
2022/01/23 04:14:14;;;;;;;;;;;21.10;48.70;;;;;;5085578;28;19927;-72
2022/01/23 04:59:33;;;;;;;;;;;21.00;48.90;;;;;;5085016;28;19938;-71
2022/01/23 04:59:34;;;;;;;;;;;20.90;48.80;;;;;;5085838;28;20423;-72
2022/01/23 05:00:11;;;;;;;;;;;20.90;48.80;;;;;;5085320;28;19922;-70
2022/01/23 05:05:27;;;;;;;;;;;20.90;48.90;;;;;;5083037;28;20024;-70
2022/01/23 05:07:53;;;;;;;;;;;20.90;48.90;;;;;;5084636;28;19939;-72
2022/01/23 05:10:19;;;;;;;;;;;20.90;48.90;;;;;;5081775;28;20669;-71
2022/01/23 05:12:44;;;;;;;;;;;20.90;48.90;;;;;;5082204;28;19994;-72
2022/01/23 05:15:11;;;;;;;;;;;20.90;48.90;;;;;;5086042;28;20003;-72
2022/01/23 05:17:37;;;;;;;;;;;20.90;49.00;;;;;;5084944;28;19912;-71
2022/01/23 05:20:04;;;;;;;;;;;20.90;48.90;;;;;;5084203;28;19927;-70
2022/01/23 05:22:37;;;;;;;;;;;20.90;49.00;;;;;;5079210;28;19920;-72
2022/01/23 05:25:13;;;;;;;;;;;20.80;48.90;;;;;;5080532;28;19912;-72
2022/01/23 05:27:39;;;;;;;;;;;20.80;49.00;;;;;;5082978;28;19916;-72
2022/01/23 05:30:05;;;;;;;;;;;20.80;49.00;;;;;;5080195;28;19935;-70
2022/01/23 05:32:40;;;;;;;;;;;20.80;49.00;;;;;;5085835;28;19951;-70
2022/01/23 05:35:07;;;;;;;;;;;20.80;49.00;;;;;;5079027;28;19912;-72
2022/01/23 05:37:33;;;;;;;;;;;20.80;49.00;;;;;;5082756;28;20006;-72
2022/01/23 05:39:58;;;;;;;;;;;20.80;49.00;;;;;;5080471;28;19920;-72
2022/01/23 05:42:24;;;;;;;;;;;20.80;49.10;;;;;;5085385;28;20053;-71
2022/01/23 05:44:50;;;;;;;;;;;20.80;49.10;;;;;;5083000;28;19931;-72
2022/01/23 05:47:15;;;;;;;;;;;20.80;49.10;;;;;;5084987;28;19920;-70
2022/01/23 05:49:41;;;;;;;;;;;20.80;49.10;;;;;;5082544;28;19912;-72
2022/01/23 05:52:07;;;;;;;;;;;20.80;49.10;;;;;;5084991;28;20002;-70
2022/01/23 05:54:33;;;;;;;;;;;20.80;49.10;;;;;;5083923;28;20006;-70
2022/01/23 05:56:59;;;;;;;;;;;20.80;49.10;;;;;;5081153;28;20341;-72
2022/01/23 05:59:25;;;;;;;;;;;20.80;49.10;;;;;;5081214;28;19964;-71
2022/01/23 06:01:55;;;;;;;;;;;20.80;49.20;;;;;;5080815;28;19920;-71
2022/01/23 06:04:21;;;;;;;;;;;20.80;49.20;;;;;;5081093;28;19912;-70
2022/01/23 06:06:47;;;;;;;;;;;20.80;49.20;;;;;;5085079;28;19943;-72
2022/01/23 06:09:13;;;;;;;;;;;20.80;49.20;;;;;;5083702;28;19912;-71
2022/01/23 06:11:38;;;;;;;;;;;20.80;49.20;;;;;;5079873;28;20341;-72
2022/01/23 06:14:04;;;;;;;;;;;20.70;49.20;;;;;;5084353;28;19963;-70
2022/01/23 06:16:29;;;;;;;;;;;20.70;49.20;;;;;;5085235;28;19916;-72
2022/01/23 06:18:55;;;;;;;;;;;20.70;49.20;;;;;;5084681;28;20379;-70
2022/01/23 06:21:21;;;;;;;;;;;20.70;49.20;;;;;;5084638;28;20394;-70
2022/01/23 06:23:54;;;;;;;;;;;20.70;49.20;;;;;;5083889;28;19963;-71
2022/01/23 06:26:20;;;;;;;;;;;20.70;49.20;;;;;;5081297;28;19920;-72
2022/01/23 06:28:49;;;;;;;;;;;20.70;49.20;;;;;;5080048;28;20272;-72
2022/01/23 06:31:14;;;;;;;;;;;20.70;49.20;;;;;;5083269;28;20027;-72
2022/01/23 06:33:40;;;;;;;;;;;20.70;49.20;;;;;;5082868;28;20030;-71
2022/01/23 06:36:05;;;;;;;;;;;20.70;49.30;;;;;;5082211;28;19947;-72
2022/01/23 06:38:31;;;;;;;;;;;20.70;49.30;;;;;;5082396;28;19993;-72
2022/01/23 06:40:56;;;;;;;;;;;20.70;49.30;;;;;;5081300;28;19916;-72
2022/01/23 06:43:22;;;;;;;;;;;20.70;49.30;;;;;;5082973;28;19995;-71
2022/01/23 06:45:47;;;;;;;;;;;20.70;49.30;;;;;;5075731;28;20019;-71
2022/01/23 06:48:13;;;;;;;;;;;20.60;49.30;;;;;;5079052;28;19938;-72
2022/01/23 06:50:38;;;;;;;;;;;20.60;49.30;;;;;;5082455;28;19975;-72
2022/01/23 06:53:04;;;;;;;;;;;20.60;49.30;;;;;;5078173;28;19967;-72
2022/01/23 06:55:29;;;;;;;;;;;20.60;49.30;;;;;;5082067;28;19962;-72
2022/01/23 06:57:55;;;;;;;;;;;20.60;49.30;;;;;;5081760;28;20347;-72
2022/01/23 07:00:20;;;;;;;;;;;20.60;49.30;;;;;;5082717;28;20454;-72
2022/01/23 07:02:46;;;;;;;;;;;20.60;49.30;;;;;;5081123;28;19927;-70
2022/01/23 07:05:11;;;;;;;;;;;20.60;49.30;;;;;;5081327;28;19928;-70
2022/01/23 07:07:37;;;;;;;;;;;20.60;49.40;;;;;;5078335;28;20356;-71
2022/01/23 07:10:02;;;;;;;;;;;20.60;49.40;;;;;;5081688;28;19970;-72
2022/01/23 07:12:28;;;;;;;;;;;20.60;49.40;;;;;;5082157;28;19946;-72
2022/01/23 07:14:54;;;;;;;;;;;20.60;49.40;;;;;;5082054;28;19912;-71
2022/01/23 07:17:20;;;;;;;;;;;20.60;49.40;;;;;;5080897;28;19926;-72
2022/01/23 07:19:45;;;;;;;;;;;20.60;49.50;;;;;;5081256;28;19923;-72
2022/01/23 07:22:11;;;;;;;;;;;20.50;49.40;;;;;;5085443;28;19920;-72
2022/01/23 07:24:36;;;;;;;;;;;20.60;49.40;;;;;;5082911;28;19927;-70
2022/01/23 07:27:11;;;;;;;;;;;20.60;49.50;;;;;;5083062;28;19958;-72
2022/01/23 07:29:37;;;;;;;;;;;20.50;49.40;;;;;;5084223;28;19920;-73
2022/01/23 07:32:08;;;;;;;;;;;20.60;49.50;;;;;;5083015;28;19923;-69
2022/01/23 07:34:33;;;;;;;;;;;20.50;49.50;;;;;;5079819;28;19962;-72
2022/01/23 07:36:59;;;;;;;;;;;20.50;49.50;;;;;;5081271;28;19959;-73
2022/01/23 07:39:24;;;;;;;;;;;20.50;49.50;;;;;;5081261;28;19927;-72
2022/01/23 07:41:50;;;;;;;;;;;20.50;49.60;;;;;;5085171;28;19947;-69
2022/01/23 07:44:15;;;;;;;;;;;20.50;49.50;;;;;;5084321;28;20089;-69
2022/01/23 07:46:41;;;;;;;;;;;20.50;49.60;;;;;;5087020;28;20135;-70
2022/01/23 07:49:07;;;;;;;;;;;20.50;49.60;;;;;;5085509;28;19916;-69
2022/01/23 07:51:32;;;;;;;;;;;20.50;49.60;;;;;;5083518;28;19916;-72
2022/01/23 07:53:58;;;;;;;;;;;20.50;49.60;;;;;;5083373;28;19939;-70
2022/01/23 07:56:23;;;;;;;;;;;20.50;49.70;;;;;;5085951;28;20446;-72
2022/01/23 07:58:49;;;;;;;;;;;20.50;49.70;;;;;;5086740;28;20317;-70
2022/01/23 08:01:14;;;;;;;;;;;20.50;49.70;;;;;;5084860;28;20077;-72
2022/01/23 08:03:40;;;;;;;;;;;20.50;49.70;;;;;;5086717;28;20425;-72
2022/01/23 08:06:05;;;;;;;;;;;20.50;49.70;;;;;;5085506;28;19923;-70
2022/01/23 08:08:31;;;;;;;;;;;20.50;49.70;;;;;;5088601;28;20287;-72
2022/01/23 08:10:57;;;;;;;;;;;20.50;49.80;;;;;;5082759;28;20026;-72
2022/01/23 08:13:22;;;;;;;;;;;20.40;49.70;;;;;;5080990;28;19913;-70
2022/01/23 08:15:48;;;;;;;;;;;20.40;49.70;;;;;;5085209;28;20307;-72
2022/01/23 08:18:15;;;;;;;;;;;20.40;49.70;;;;;;5101869;28;20520;-69
2022/01/23 08:20:40;;;;;;;;;;;20.50;49.90;;;;;;5085982;28;19916;-72
2022/01/23 08:23:06;;;;;;;;;;;20.40;49.70;;;;;;5087599;28;19980;-69
2022/01/23 08:25:32;;;;;;;;;;;20.40;49.80;;;;;;5085156;28;19919;-72
2022/01/23 08:27:58;;;;;;;;;;;20.40;49.80;;;;;;5083581;28;19967;-72
2022/01/23 08:30:24;;;;;;;;;;;20.40;49.80;;;;;;5082207;28;20707;-69
2022/01/23 08:32:49;;;;;;;;;;;20.40;49.90;;;;;;5080221;28;20340;-70
2022/01/23 08:35:15;;;;;;;;;;;20.40;49.80;;;;;;5081881;28;19939;-72
2022/01/23 08:37:41;;;;;;;;;;;20.40;49.90;;;;;;5081868;28;19923;-70
2022/01/23 08:40:17;;;;;;;;;;;20.40;49.90;;;;;;5078850;28;19927;-70
2022/01/23 08:42:42;;;;;;;;;;;20.40;49.90;;;;;;5082192;28;19919;-72
2022/01/23 08:45:08;;;;;;;;;;;20.40;49.90;;;;;;5083708;28;20299;-69
2022/01/23 08:47:33;;;;;;;;;;;20.40;49.90;;;;;;5085595;28;20367;-69
2022/01/23 08:49:59;;;;;;;;;;;20.40;49.90;;;;;;5079393;28;20354;-71
2022/01/23 08:52:24;;;;;;;;;;;20.40;49.90;;;;;;5085858;28;19969;-72
2022/01/23 08:54:51;;;;;;;;;;;20.40;50.50;;;;;;5085476;28;19913;-71
2022/01/23 08:57:18;;;;;;;;;;;20.40;50.00;;;;;;5085568;28;19965;-72
2022/01/23 08:59:43;;;;;;;;;;;20.40;50.00;;;;;;5082194;28;20380;-70
2022/01/23 09:02:10;;;;;;;;;;;20.40;50.00;;;;;;5085502;28;19912;-72
2022/01/23 09:04:35;;;;;;;;;;;20.40;50.00;;;;;;5082405;28;19916;-70
2022/01/23 09:07:01;;;;;;;;;;;20.40;50.00;;;;;;5088254;28;20440;-71
2022/01/23 09:09:31;;;;;;;;;;;20.30;50.00;;;;;;5082356;28;19920;-71
2022/01/23 09:14:25;;;;;;;;;;;20.40;50.00;;;;;;5085047;28;19923;-69
2022/01/23 09:16:51;;;;;;;;;;;20.30;50.00;;;;;;5085428;28;19912;-72
2022/01/23 09:19:18;;;;;;;;;;;20.30;50.60;;;;;;5084087;28;19969;-72
2022/01/23 09:21:44;;;;;;;;;;;20.30;50.00;;;;;;5083241;28;20426;-69
2022/01/23 09:24:09;;;;;;;;;;;20.30;50.00;;;;;;5081697;28;19916;-71
2022/01/23 09:26:36;;;;;;;;;;;20.30;50.10;;;;;;5082723;28;19912;-68
2022/01/23 09:29:12;;;;;;;;;;;20.30;50.10;;;;;;5084242;28;19986;-71
2022/01/23 09:31:49;;;;;;;;;;;20.30;50.10;;;;;;5080441;28;20024;-69
2022/01/23 09:34:18;;;;;;;;;;;20.40;50.20;;;;;;5078894;28;20448;-70
2022/01/23 09:36:44;;;;;;;;;;;20.40;50.10;;;;;;5081864;28;20376;-69
2022/01/23 09:39:14;;;;;;;;;;;20.30;50.10;;;;;;5081446;28;19916;-70
2022/01/23 09:41:41;;;;;;;;;;;20.30;50.10;;;;;;5077336;28;20309;-71
2022/01/23 09:44:07;;;;;;;;;;;20.30;50.10;;;;;;5080238;28;19943;-71
2022/01/23 09:46:33;;;;;;;;;;;20.30;50.20;;;;;;5082105;28;20379;-72
2022/01/23 09:49:00;;;;;;;;;;;20.30;50.20;;;;;;5079248;28;20398;-71
2022/01/23 09:51:26;;;;;;;;;;;20.30;50.20;;;;;;5077633;28;20174;-71
2022/01/23 09:53:52;;;;;;;;;;;20.30;50.20;;;;;;5081847;28;20311;-71
2022/01/23 09:56:27;;;;;;;;;;;20.30;50.20;;;;;;5078665;28;19928;-71
2022/01/23 09:58:53;;;;;;;;;;;20.30;50.20;;;;;;5082194;28;20379;-72
2022/01/23 10:01:20;;;;;;;;;;;20.30;50.20;;;;;;5078317;28;20011;-70
2022/01/23 10:03:46;;;;;;;;;;;20.30;50.20;;;;;;5080449;28;20410;-71
2022/01/23 10:06:17;;;;;;;;;;;20.30;50.20;;;;;;5083545;28;19916;-71
2022/01/23 10:08:43;;;;;;;;;;;20.30;50.20;;;;;;5081432;28;19935;-71
2022/01/23 10:11:12;;;;;;;;;;;20.30;50.20;;;;;;5080321;28;19935;-72
2022/01/23 10:13:39;;;;;;;;;;;20.30;50.20;;;;;;5078175;28;20347;-69
2022/01/23 10:16:04;;;;;;;;;;;20.30;50.20;;;;;;5079833;28;19922;-71
2022/01/23 10:18:31;;;;;;;;;;;20.30;50.20;;;;;;5081051;28;20538;-71
2022/01/23 10:20:56;;;;;;;;;;;20.30;50.20;;;;;;5080742;28;19946;-70
2022/01/23 10:23:23;;;;;;;;;;;20.30;50.20;;;;;;5082463;28;20469;-71
2022/01/23 10:25:51;;;;;;;;;;;20.30;50.20;;;;;;5078111;28;19955;-70
2022/01/23 10:28:19;;;;;;;;;;;20.30;50.20;;;;;;5080058;28;19920;-72
2022/01/23 10:30:47;;;;;;;;;;;20.30;50.20;;;;;;5079101;28;20019;-71
2022/01/23 10:33:21;;;;;;;;;;;20.30;50.20;;;;;;5078271;28;19919;-70
2022/01/23 10:36:05;;;;;;;;;;;20.30;50.20;;;;;;5077809;28;19985;-69
2022/01/23 10:38:44;;;;;;;;;;;20.30;50.20;;;;;;5077733;28;20526;-70
2022/01/23 10:47:17;;;;;;;;;;;20.30;50.20;;;;;;5077738;28;20053;-70
2022/01/23 10:49:46;;;;;;;;;;;20.30;50.20;;;;;;5080323;28;19916;-69
2022/01/23 10:52:23;;;;;;;;;;;20.30;50.20;;;;;;5078042;28;19984;-71
2022/01/23 10:54:49;;;;;;;;;;;20.30;50.20;;;;;;5074991;28;19981;-71
2022/01/23 10:57:14;;;;;;;;;;;20.30;50.20;;;;;;5078632;28;19920;-69
2022/01/23 10:59:47;;;;;;;;;;;20.30;50.20;;;;;;5077514;28;19931;-71
2022/01/23 11:02:15;;;;;;;;;;;20.30;50.20;;;;;;5076914;28;19920;-72
2022/01/23 11:04:52;;;;;;;;;;;20.30;50.20;;;;;;5077692;28;20003;-71
2022/01/23 11:07:18;;;;;;;;;;;20.30;50.20;;;;;;5079917;28;19919;-72
2022/01/23 11:09:43;;;;;;;;;;;20.30;50.20;;;;;;5076960;28;19916;-72
2022/01/23 11:12:15;;;;;;;;;;;20.30;50.20;;;;;;5077419;28;20295;-72
2022/01/23 11:17:26;;;;;;;;;;;20.30;50.20;;;;;;5083898;28;20062;-72
2022/01/23 11:19:59;;;;;;;;;;;20.30;50.20;;;;;;5083223;28;20278;-71
2022/01/23 11:22:26;;;;;;;;;;;20.30;50.20;;;;;;5075292;28;20465;-70
2022/01/23 11:24:52;;;;;;;;;;;20.30;50.20;;;;;;5083283;28;19916;-70
2022/01/23 11:27:19;;;;;;;;;;;20.30;50.20;;;;;;5082021;28;19916;-70
2022/01/23 11:29:52;;;;;;;;;;;20.30;50.20;;;;;;5078997;28;19916;-72
2022/01/23 11:32:19;;;;;;;;;;;20.30;50.20;;;;;;5081966;28;19927;-72
2022/01/23 11:34:45;;;;;;;;;;;20.30;50.20;;;;;;5081947;28;19923;-70
2022/01/23 11:37:12;;;;;;;;;;;20.30;50.30;;;;;;5082188;28;20008;-69
2022/01/23 11:39:43;;;;;;;;;;;20.30;50.30;;;;;;5082006;28;19919;-72
2022/01/23 11:56:25;;;;;;;;;;;20.30;50.40;;;;;;5083459;28;19989;-69
2022/01/23 11:59:09;;;;;;;;;;;20.30;50.40;;;;;;5067918;28;19915;-70
2022/01/23 12:01:35;;;;;;;;;;;20.30;50.50;;;;;;5080988;28;19916;-71
2022/01/23 12:04:07;;;;;;;;;;;20.30;50.50;;;;;;5083253;28;19922;-72
2022/01/23 12:06:33;;;;;;;;;;;20.30;50.50;;;;;;5078222;28;19916;-72
2022/01/23 12:09:19;;;;;;;;;;;20.30;50.60;;;;;;5082802;28;19942;-71
2022/01/23 12:12:39;;;;;;;;;;;20.20;50.60;;;;;;5076739;28;19930;-71
2022/01/23 12:18:22;;;;;;;;;;;20.30;50.70;;;;;;5080326;28;20018;-71
2022/01/23 12:20:48;;;;;;;;;;;20.20;51.20;;;;;;5075218;28;19938;-71
2022/01/23 12:23:14;;;;;;;;;;;20.30;51.70;;;;;;5082608;28;19916;-71
2022/01/23 12:25:43;;;;;;;;;;;20.30;52.30;;;;;;5076407;28;19916;-70
2022/01/23 12:28:25;;;;;;;;;;;20.30;52.50;;;;;;5080022;28;19920;-72
2022/01/23 12:30:51;;;;;;;;;;;20.40;52.70;;;;;;5080109;28;19920;-72
2022/01/23 12:33:23;;;;;;;;;;;20.50;52.80;;;;;;5079284;28;19920;-71
2022/01/23 12:35:51;;;;;;;;;;;20.50;53.10;;;;;;5075157;28;20556;-71
2022/01/23 12:38:16;;;;;;;;;;;20.60;53.10;;;;;;5075063;28;19920;-72
2022/01/23 12:40:45;;;;;;;;;;;20.60;53.20;;;;;;5074066;28;19943;-71
2022/01/23 12:43:12;;;;;;;;;;;20.70;53.30;;;;;;5079892;28;19916;-72
2022/01/23 12:45:48;;;;;;;;;;;20.70;53.30;;;;;;5081726;28;20304;-71
2022/01/23 12:48:26;;;;;;;;;;;20.70;53.40;;;;;;5081188;28;19921;-70
2022/01/23 12:50:58;;;;;;;;;;;20.70;53.70;;;;;;5077682;28;19967;-70
2022/01/23 12:53:43;;;;;;;;;;;20.70;53.70;;;;;;5080307;28;20445;-72
2022/01/23 12:56:10;;;;;;;;;;;20.70;53.70;;;;;;5079297;28;19927;-72
2022/01/23 12:58:37;;;;;;;;;;;20.70;53.60;;;;;;5076626;28;19994;-72
2022/01/23 13:01:07;;;;;;;;;;;20.70;53.80;;;;;;5081522;28;20045;-71
2022/01/23 13:03:33;;;;;;;;;;;20.70;53.70;;;;;;5080754;28;20014;-72
2022/01/23 13:05:59;;;;;;;;;;;20.70;53.70;;;;;;5075102;28;20115;-72
2022/01/23 13:08:28;;;;;;;;;;;20.70;53.70;;;;;;5082605;28;19951;-72
2022/01/23 13:11:20;;;;;;;;;;;20.70;53.80;;;;;;5075706;28;19927;-72
2022/01/23 13:13:51;;;;;;;;;;;20.70;53.80;;;;;;5077779;28;19916;-72
2022/01/23 13:16:29;;;;;;;;;;;20.70;53.80;;;;;;5078187;28;19927;-71
2022/01/23 13:19:31;;;;;;;;;;;20.70;54.00;;;;;;5079178;28;20031;-71
2022/01/23 13:28:06;;;;;;;;;;;20.70;54.10;;;;;;5076947;28;19927;-71
2022/01/23 13:30:25;;;;;;;;;;;20.70;54.20;;;;;;5072978;28;19945;-71
2022/01/23 13:32:52;;;;;;;;;;;20.70;54.20;;;;;;5072288;28;19916;-71
2022/01/23 13:35:18;;;;;;;;;;;20.70;54.20;;;;;;5093330;28;20446;-71
2022/01/23 13:37:55;;;;;;;;;;;20.70;54.30;;;;;;5075150;28;20012;-72
2022/01/23 13:40:26;;;;;;;;;;;20.70;54.40;;;;;;5076566;28;20013;-72
2022/01/23 13:59:12;;;;;;;;;;;20.80;55.00;;;;;;5072052;28;19923;-74
2022/01/23 14:04:17;;;;;;;;;;;20.90;54.80;;;;;;5073674;28;19912;-74
2022/01/23 14:06:46;;;;;;;;;;;20.90;54.50;;;;;;5071103;28;19927;-71
2022/01/23 14:09:12;;;;;;;;;;;20.90;54.20;;;;;;5068759;28;20000;-74
2022/01/23 14:11:38;;;;;;;;;;;20.90;53.90;;;;;;5074694;28;19927;-70
2022/01/23 14:14:18;;;;;;;;;;;21.00;53.80;;;;;;5068920;28;19920;-71
2022/01/23 14:16:44;;;;;;;;;;;21.10;53.80;;;;;;5073607;28;19923;-72
2022/01/23 14:19:29;;;;;;;;;;;21.10;53.50;;;;;;5074579;28;19924;-73
2022/01/23 14:21:59;;;;;;;;;;;21.10;53.40;;;;;;5070298;28;19920;-73
2022/01/23 14:24:29;;;;;;;;;;;21.20;53.20;;;;;;5070424;28;20011;-73
2022/01/23 14:27:09;;;;;;;;;;;21.20;53.10;;;;;;5084987;28;20667;-72
2022/01/23 14:29:46;;;;;;;;;;;21.20;53.00;;;;;;5072556;28;19942;-72
2022/01/23 14:32:19;;;;;;;;;;;21.30;52.90;;;;;;5069955;28;19924;-72
2022/01/23 14:34:45;;;;;;;;;;;21.30;52.90;;;;;;5069581;28;19916;-74
2022/01/23 14:37:10;;;;;;;;;;;21.40;52.70;;;;;;5072791;28;20430;-70
2022/01/23 14:39:36;;;;;;;;;;;21.40;52.70;;;;;;5070544;28;19961;-72
2022/01/23 14:42:09;;;;;;;;;;;21.40;52.60;;;;;;5072068;28;19916;-74
2022/01/23 14:44:35;;;;;;;;;;;21.50;52.60;;;;;;5068216;28;20056;-72
2022/01/23 14:47:01;;;;;;;;;;;21.50;52.50;;;;;;5068308;28;20068;-74
2022/01/23 14:49:29;;;;;;;;;;;21.50;52.50;;;;;;5069075;28;19999;-72
2022/01/23 14:51:55;;;;;;;;;;;21.50;52.40;;;;;;5075781;28;20652;-72
2022/01/23 14:54:21;;;;;;;;;;;21.50;52.30;;;;;;5076911;28;19976;-72
2022/01/23 14:56:47;;;;;;;;;;;21.60;52.30;;;;;;5077654;28;20191;-72
2022/01/23 14:59:14;;;;;;;;;;;21.60;52.50;;;;;;5079299;28;19959;-72
2022/01/23 15:01:40;;;;;;;;;;;21.60;52.30;;;;;;5072000;28;19923;-71
2022/01/23 15:04:08;;;;;;;;;;;21.60;52.20;;;;;;5071964;28;19916;-70
2022/01/23 15:06:35;;;;;;;;;;;21.70;52.20;;;;;;5074775;28;20018;-71
2022/01/23 15:09:08;;;;;;;;;;;21.70;52.00;;;;;;5076716;28;19920;-72
2022/01/23 15:11:34;;;;;;;;;;;21.70;52.00;;;;;;5076621;28;20338;-73
2022/01/23 15:13:59;;;;;;;;;;;21.80;51.90;;;;;;5078487;28;19920;-73
2022/01/23 15:16:25;;;;;;;;;;;21.80;51.80;;;;;;5077237;28;19968;-72
2022/01/23 15:18:51;;;;;;;;;;;21.80;52.00;;;;;;5078131;28;19969;-72
2022/01/23 15:21:16;;;;;;;;;;;21.80;51.80;;;;;;5079795;28;20070;-74
2022/01/23 15:23:42;;;;;;;;;;;21.80;51.80;;;;;;5074086;28;20834;-70
2022/01/23 15:26:07;;;;;;;;;;;21.90;51.70;;;;;;5072354;28;19916;-70
2022/01/23 15:28:33;;;;;;;;;;;21.90;51.70;;;;;;5070878;28;19939;-71
2022/01/23 15:30:58;;;;;;;;;;;21.90;51.60;;;;;;5073756;28;19920;-75
2022/01/23 15:33:24;;;;;;;;;;;21.90;51.60;;;;;;5077515;28;19920;-69
2022/01/23 15:35:49;;;;;;;;;;;21.90;51.60;;;;;;5075391;28;19916;-69
2022/01/23 15:38:15;;;;;;;;;;;21.90;51.50;;;;;;5078275;28;19939;-73
2022/01/23 15:40:41;;;;;;;;;;;21.90;51.50;;;;;;5077430;28;20422;-72
2022/01/23 15:43:07;;;;;;;;;;;21.90;51.90;;;;;;5074716;28;20556;-72
2022/01/23 15:45:32;;;;;;;;;;;22.00;51.50;;;;;;5077407;28;20318;-73
2022/01/23 15:47:58;;;;;;;;;;;22.00;51.50;;;;;;5078157;28;19916;-71
2022/01/23 15:50:23;;;;;;;;;;;22.00;51.40;;;;;;5077372;28;19924;-72
2022/01/23 15:52:49;;;;;;;;;;;22.00;51.40;;;;;;5078252;28;20405;-72
2022/01/23 15:55:16;;;;;;;;;;;22.10;51.50;;;;;;5078517;28;19987;-73
2022/01/23 15:57:41;;;;;;;;;;;22.00;51.60;;;;;;5078251;28;19923;-74
2022/01/23 16:00:08;;;;;;;;;;;22.10;51.40;;;;;;5077188;28;19920;-72
2022/01/23 16:02:34;;;;;;;;;;;22.10;51.30;;;;;;5079161;28;19927;-71
2022/01/23 16:05:00;;;;;;;;;;;22.10;51.20;;;;;;5072888;28;19920;-71
2022/01/23 16:07:26;;;;;;;;;;;22.10;51.20;;;;;;5072469;28;19931;-72
2022/01/23 16:09:52;;;;;;;;;;;22.20;51.20;;;;;;5075183;28;19920;-71
2022/01/23 16:12:17;;;;;;;;;;;22.20;51.30;;;;;;5073907;28;19944;-71
2022/01/23 16:14:43;;;;;;;;;;;22.20;51.40;;;;;;5072278;28;19964;-73
2022/01/23 16:17:09;;;;;;;;;;;22.10;51.10;;;;;;5073578;28;19920;-73
2022/01/23 16:19:34;;;;;;;;;;;22.20;51.20;;;;;;5074102;28;19920;-73
2022/01/23 16:22:00;;;;;;;;;;;22.20;51.20;;;;;;5076904;28;19916;-73
2022/01/23 16:24:26;;;;;;;;;;;22.20;51.10;;;;;;5071463;28;19920;-73
2022/01/23 16:26:52;;;;;;;;;;;22.20;51.00;;;;;;5070165;28;19916;-73
2022/01/23 16:29:18;;;;;;;;;;;22.20;51.00;;;;;;5073147;28;19920;-71
2022/01/23 16:31:44;;;;;;;;;;;22.20;50.90;;;;;;5073922;28;19946;-72
2022/01/23 16:34:09;;;;;;;;;;;22.20;50.90;;;;;;5071536;28;19916;-72
2022/01/23 16:36:35;;;;;;;;;;;22.30;50.80;;;;;;5080068;28;19916;-71
2022/01/23 16:39:03;;;;;;;;;;;22.20;50.70;;;;;;5076201;28;19920;-70
2022/01/23 16:41:29;;;;;;;;;;;22.30;50.70;;;;;;5082064;28;19959;-71
2022/01/23 16:43:55;;;;;;;;;;;22.30;50.70;;;;;;5076679;28;20679;-72
2022/01/23 16:46:21;;;;;;;;;;;22.30;50.70;;;;;;5078109;28;20394;-73
2022/01/23 16:48:46;;;;;;;;;;;22.30;50.50;;;;;;5077987;28;19916;-70
2022/01/23 16:51:12;;;;;;;;;;;22.40;50.50;;;;;;5077999;28;19924;-74
2022/01/23 16:53:37;;;;;;;;;;;22.40;50.50;;;;;;5074933;28;20059;-70
2022/01/23 16:56:03;;;;;;;;;;;22.40;50.50;;;;;;5071695;28;19924;-71
2022/01/23 16:58:30;;;;;;;;;;;22.40;50.40;;;;;;5075076;28;20074;-72
2022/01/23 17:00:56;;;;;;;;;;;22.40;50.40;;;;;;5078053;28;19927;-70
2022/01/23 17:03:22;;;;;;;;;;;22.40;50.40;;;;;;5076740;28;20018;-71
2022/01/23 17:05:48;;;;;;;;;;;22.40;50.50;;;;;;5078810;28;19920;-74
2022/01/23 17:08:14;;;;;;;;;;;22.50;50.50;;;;;;5084531;28;20023;-73
2022/01/23 17:10:40;;;;;;;;;;;22.50;50.40;;;;;;5084170;28;21823;-73
2022/01/23 17:13:06;;;;;;;;;;;22.50;50.40;;;;;;5076628;28;19916;-72
2022/01/23 17:15:31;;;;;;;;;;;22.50;50.30;;;;;;5074520;28;19917;-72
2022/01/23 17:17:57;;;;;;;;;;;22.50;50.60;;;;;;5074838;28;19927;-72
2022/01/23 17:20:23;;;;;;;;;;;22.40;50.30;;;;;;5076939;28;20042;-71
2022/01/23 17:22:49;;;;;;;;;;;22.50;50.40;;;;;;5082055;28;19923;-71
2022/01/23 17:25:15;;;;;;;;;;;22.50;50.30;;;;;;5079851;28;20508;-73
2022/01/23 17:27:41;;;;;;;;;;;22.50;50.30;;;;;;5077308;28;19916;-71
2022/01/23 17:30:06;;;;;;;;;;;22.50;50.20;;;;;;5076238;28;19924;-70
2022/01/23 17:32:32;;;;;;;;;;;22.50;50.20;;;;;;5071940;28;20009;-70
2022/01/23 17:34:57;;;;;;;;;;;22.60;50.20;;;;;;5073775;28;19920;-71
2022/01/23 17:37:23;;;;;;;;;;;22.50;50.10;;;;;;5074310;28;20746;-72
2022/01/23 17:39:48;;;;;;;;;;;22.60;50.10;;;;;;5077119;28;20499;-74
2022/01/23 17:42:14;;;;;;;;;;;22.50;50.00;;;;;;5077753;28;19920;-70
2022/01/23 17:44:44;;;;;;;;;;;22.60;50.10;;;;;;5075563;28;19917;-70